sensor_id;sensor_type;location;lat;lon;timestamp;P1;durP1;ratioP1;P2;durP2;ratioP2
22282;SDS011;11310;51.528;21.204;2023-10-19T00:02:14;77.18;;;21.00;;
22282;SDS011;11310;51.528;21.204;2023-10-19T00:04:46;168.75;;;34.13;;
22282;SDS011;11310;51.528;21.204;2023-10-19T00:07:17;93.97;;;24.42;;
22282;SDS011;11310;51.528;21.204;2023-10-19T00:09:45;153.02;;;31.00;;
22282;SDS011;11310;51.528;21.204;2023-10-19T00:12:15;114.53;;;25.73;;
22282;SDS011;11310;51.528;21.204;2023-10-19T00:14:43;128.75;;;28.25;;
22282;SDS011;11310;51.528;21.204;2023-10-19T00:17:10;145.35;;;30.23;;
22282;SDS011;11310;51.528;21.204;2023-10-19T00:19:41;160.75;;;31.38;;
22282;SDS011;11310;51.528;21.204;2023-10-19T00:22:26;108.80;;;23.48;;
22282;SDS011;11310;51.528;21.204;2023-10-19T00:24:58;126.15;;;25.83;;
22282;SDS011;11310;51.528;21.204;2023-10-19T00:27:26;158.18;;;30.20;;
22282;SDS011;11310;51.528;21.204;2023-10-19T00:29:54;102.53;;;23.55;;
22282;SDS011;11310;51.528;21.204;2023-10-19T00:32:32;190.85;;;34.55;;
22282;SDS011;11310;51.528;21.204;2023-10-19T00:35:05;97.55;;;22.55;;
22282;SDS011;11310;51.528;21.204;2023-10-19T00:37:56;120.68;;;24.50;;
22282;SDS011;11310;51.528;21.204;2023-10-19T00:40:49;130.63;;;24.73;;
22282;SDS011;11310;51.528;21.204;2023-10-19T00:43:28;85.38;;;18.63;;
22282;SDS011;11310;51.528;21.204;2023-10-19T00:45:59;150.27;;;27.35;;
22282;SDS011;11310;51.528;21.204;2023-10-19T00:48:44;168.52;;;30.60;;
22282;SDS011;11310;51.528;21.204;2023-10-19T00:51:16;118.07;;;22.83;;
22282;SDS011;11310;51.528;21.204;2023-10-19T00:54:09;126.22;;;24.33;;
22282;SDS011;11310;51.528;21.204;2023-10-19T00:56:41;145.02;;;26.67;;
22282;SDS011;11310;51.528;21.204;2023-10-19T00:59:14;78.25;;;18.58;;
22282;SDS011;11310;51.528;21.204;2023-10-19T01:01:50;138.60;;;25.42;;
22282;SDS011;11310;51.528;21.204;2023-10-19T01:04:21;105.38;;;22.48;;
22282;SDS011;11310;51.528;21.204;2023-10-19T01:06:52;129.48;;;24.27;;
22282;SDS011;11310;51.528;21.204;2023-10-19T01:09:33;113.35;;;22.27;;
22282;SDS011;11310;51.528;21.204;2023-10-19T01:12:03;106.60;;;21.60;;
22282;SDS011;11310;51.528;21.204;2023-10-19T01:15:00;168.90;;;29.38;;
22282;SDS011;11310;51.528;21.204;2023-10-19T01:17:35;83.43;;;17.48;;
22282;SDS011;11310;51.528;21.204;2023-10-19T01:20:08;111.78;;;21.80;;
22282;SDS011;11310;51.528;21.204;2023-10-19T01:22:50;131.27;;;24.35;;
22282;SDS011;11310;51.528;21.204;2023-10-19T01:25:43;112.25;;;21.80;;
22282;SDS011;11310;51.528;21.204;2023-10-19T01:28:18;99.53;;;19.75;;
22282;SDS011;11310;51.528;21.204;2023-10-19T01:30:52;143.77;;;26.05;;
22282;SDS011;11310;51.528;21.204;2023-10-19T01:33:21;80.07;;;16.40;;
22282;SDS011;11310;51.528;21.204;2023-10-19T01:35:50;152.77;;;27.38;;
22282;SDS011;11310;51.528;21.204;2023-10-19T01:38:38;132.85;;;23.75;;
22282;SDS011;11310;51.528;21.204;2023-10-19T01:41:08;114.55;;;21.20;;
22282;SDS011;11310;51.528;21.204;2023-10-19T01:43:40;146.85;;;25.90;;
22282;SDS011;11310;51.528;21.204;2023-10-19T01:46:11;102.30;;;20.30;;
22282;SDS011;11310;51.528;21.204;2023-10-19T01:48:41;178.77;;;29.48;;
22282;SDS011;11310;51.528;21.204;2023-10-19T01:51:11;96.43;;;19.17;;
22282;SDS011;11310;51.528;21.204;2023-10-19T01:53:41;140.55;;;24.67;;
22282;SDS011;11310;51.528;21.204;2023-10-19T01:56:11;123.53;;;22.95;;
22282;SDS011;11310;51.528;21.204;2023-10-19T01:58:40;138.63;;;25.02;;
22282;SDS011;11310;51.528;21.204;2023-10-19T02:01:09;95.88;;;18.45;;
22282;SDS011;11310;51.528;21.204;2023-10-19T02:03:46;127.43;;;22.92;;
22282;SDS011;11310;51.528;21.204;2023-10-19T02:06:14;103.68;;;19.58;;
22282;SDS011;11310;51.528;21.204;2023-10-19T02:08:49;126.88;;;22.88;;
22282;SDS011;11310;51.528;21.204;2023-10-19T02:11:21;92.90;;;18.58;;
22282;SDS011;11310;51.528;21.204;2023-10-19T02:13:51;139.80;;;25.20;;
22282;SDS011;11310;51.528;21.204;2023-10-19T02:16:21;115.88;;;20.98;;
22282;SDS011;11310;51.528;21.204;2023-10-19T02:18:54;142.90;;;25.23;;
22282;SDS011;11310;51.528;21.204;2023-10-19T02:21:22;124.00;;;21.80;;
22282;SDS011;11310;51.528;21.204;2023-10-19T02:23:56;139.30;;;25.48;;
22282;SDS011;11310;51.528;21.204;2023-10-19T02:26:25;109.22;;;20.48;;
22282;SDS011;11310;51.528;21.204;2023-10-19T02:28:54;119.97;;;22.95;;
22282;SDS011;11310;51.528;21.204;2023-10-19T02:31:24;166.20;;;28.65;;
22282;SDS011;11310;51.528;21.204;2023-10-19T02:33:53;114.25;;;21.38;;
22282;SDS011;11310;51.528;21.204;2023-10-19T02:36:29;121.75;;;23.15;;
22282;SDS011;11310;51.528;21.204;2023-10-19T02:39:01;80.63;;;16.45;;
22282;SDS011;11310;51.528;21.204;2023-10-19T02:41:35;112.93;;;21.98;;
22282;SDS011;11310;51.528;21.204;2023-10-19T02:44:03;80.28;;;16.40;;
22282;SDS011;11310;51.528;21.204;2023-10-19T02:46:37;104.15;;;20.58;;
22282;SDS011;11310;51.528;21.204;2023-10-19T02:49:06;64.28;;;13.80;;
22282;SDS011;11310;51.528;21.204;2023-10-19T02:51:38;125.90;;;22.92;;
22282;SDS011;11310;51.528;21.204;2023-10-19T02:54:08;72.47;;;15.93;;
22282;SDS011;11310;51.528;21.204;2023-10-19T02:56:45;123.55;;;23.13;;
22282;SDS011;11310;51.528;21.204;2023-10-19T02:59:15;95.78;;;19.65;;
22282;SDS011;11310;51.528;21.204;2023-10-19T03:01:49;125.88;;;25.67;;
22282;SDS011;11310;51.528;21.204;2023-10-19T03:04:17;76.95;;;18.27;;
22282;SDS011;11310;51.528;21.204;2023-10-19T03:06:47;110.57;;;23.90;;
22282;SDS011;11310;51.528;21.204;2023-10-19T03:09:17;73.63;;;18.13;;
22282;SDS011;11310;51.528;21.204;2023-10-19T03:11:55;75.07;;;16.98;;
22282;SDS011;11310;51.528;21.204;2023-10-19T03:14:26;67.13;;;17.23;;
22282;SDS011;11310;51.528;21.204;2023-10-19T03:16:56;74.97;;;16.55;;
22282;SDS011;11310;51.528;21.204;2023-10-19T03:19:24;88.15;;;21.45;;
22282;SDS011;11310;51.528;21.204;2023-10-19T03:21:53;75.00;;;20.45;;
22282;SDS011;11310;51.528;21.204;2023-10-19T03:24:24;78.90;;;20.88;;
22282;SDS011;11310;51.528;21.204;2023-10-19T03:27:04;74.03;;;18.65;;
22282;SDS011;11310;51.528;21.204;2023-10-19T03:29:39;119.47;;;28.88;;
22282;SDS011;11310;51.528;21.204;2023-10-19T03:32:13;55.25;;;14.98;;
22282;SDS011;11310;51.528;21.204;2023-10-19T03:34:44;131.57;;;25.90;;
22282;SDS011;11310;51.528;21.204;2023-10-19T03:37:25;75.38;;;20.27;;
22282;SDS011;11310;51.528;21.204;2023-10-19T03:39:58;96.85;;;24.45;;
22282;SDS011;11310;51.528;21.204;2023-10-19T03:42:33;95.65;;;20.58;;
22282;SDS011;11310;51.528;21.204;2023-10-19T03:45:08;76.95;;;17.10;;
22282;SDS011;11310;51.528;21.204;2023-10-19T03:47:39;98.85;;;21.02;;
22282;SDS011;11310;51.528;21.204;2023-10-19T03:50:10;94.40;;;19.87;;
22282;SDS011;11310;51.528;21.204;2023-10-19T03:55:13;101.93;;;20.65;;
22282;SDS011;11310;51.528;21.204;2023-10-19T03:57:45;121.18;;;24.25;;
22282;SDS011;11310;51.528;21.204;2023-10-19T04:00:22;124.07;;;24.70;;
22282;SDS011;11310;51.528;21.204;2023-10-19T04:02:54;112.13;;;23.45;;
22282;SDS011;11310;51.528;21.204;2023-10-19T04:05:25;127.75;;;26.25;;
22282;SDS011;11310;51.528;21.204;2023-10-19T04:07:55;104.53;;;22.05;;
22282;SDS011;11310;51.528;21.204;2023-10-19T04:10:26;141.73;;;28.42;;
22282;SDS011;11310;51.528;21.204;2023-10-19T04:13:06;92.63;;;20.55;;
22282;SDS011;11310;51.528;21.204;2023-10-19T04:15:40;138.68;;;27.05;;
22282;SDS011;11310;51.528;21.204;2023-10-19T04:18:09;69.88;;;17.60;;
22282;SDS011;11310;51.528;21.204;2023-10-19T04:20:38;140.60;;;28.70;;
22282;SDS011;11310;51.528;21.204;2023-10-19T04:23:22;92.45;;;21.05;;
22282;SDS011;11310;51.528;21.204;2023-10-19T04:25:57;105.78;;;22.33;;
22282;SDS011;11310;51.528;21.204;2023-10-19T04:28:30;65.35;;;16.48;;
22282;SDS011;11310;51.528;21.204;2023-10-19T04:31:06;92.65;;;21.05;;
22282;SDS011;11310;51.528;21.204;2023-10-19T04:33:40;106.35;;;23.88;;
22282;SDS011;11310;51.528;21.204;2023-10-19T04:36:13;94.80;;;22.02;;
22282;SDS011;11310;51.528;21.204;2023-10-19T04:38:43;106.13;;;23.63;;
22282;SDS011;11310;51.528;21.204;2023-10-19T04:41:14;73.10;;;17.58;;
22282;SDS011;11310;51.528;21.204;2023-10-19T04:43:43;112.72;;;23.77;;
22282;SDS011;11310;51.528;21.204;2023-10-19T04:46:17;67.60;;;17.30;;
22282;SDS011;11310;51.528;21.204;2023-10-19T04:48:47;117.93;;;25.65;;
22282;SDS011;11310;51.528;21.204;2023-10-19T04:51:16;91.13;;;21.85;;
22282;SDS011;11310;51.528;21.204;2023-10-19T04:53:45;118.82;;;25.58;;
22282;SDS011;11310;51.528;21.204;2023-10-19T04:56:17;68.55;;;16.92;;
22282;SDS011;11310;51.528;21.204;2023-10-19T04:58:46;113.95;;;25.73;;
22282;SDS011;11310;51.528;21.204;2023-10-19T05:01:15;72.30;;;17.73;;
22282;SDS011;11310;51.528;21.204;2023-10-19T05:03:43;102.00;;;24.05;;
22282;SDS011;11310;51.528;21.204;2023-10-19T05:06:12;76.10;;;19.33;;
22282;SDS011;11310;51.528;21.204;2023-10-19T05:08:40;102.05;;;24.30;;
22282;SDS011;11310;51.528;21.204;2023-10-19T05:11:09;72.45;;;19.23;;
22282;SDS011;11310;51.528;21.204;2023-10-19T05:13:39;88.35;;;23.08;;
22282;SDS011;11310;51.528;21.204;2023-10-19T05:16:07;65.00;;;18.02;;
22282;SDS011;11310;51.528;21.204;2023-10-19T05:18:36;124.32;;;28.85;;
22282;SDS011;11310;51.528;21.204;2023-10-19T05:21:05;75.10;;;19.58;;
22282;SDS011;11310;51.528;21.204;2023-10-19T05:23:34;63.67;;;17.17;;
22282;SDS011;11310;51.528;21.204;2023-10-19T05:26:04;70.65;;;19.88;;
22282;SDS011;11310;51.528;21.204;2023-10-19T05:28:34;80.53;;;21.38;;
22282;SDS011;11310;51.528;21.204;2023-10-19T05:31:05;58.97;;;17.52;;
22282;SDS011;11310;51.528;21.204;2023-10-19T05:33:34;87.40;;;22.97;;
22282;SDS011;11310;51.528;21.204;2023-10-19T05:36:03;80.28;;;21.63;;
22282;SDS011;11310;51.528;21.204;2023-10-19T05:38:32;74.57;;;21.92;;
22282;SDS011;11310;51.528;21.204;2023-10-19T05:41:00;86.18;;;22.48;;
22282;SDS011;11310;51.528;21.204;2023-10-19T05:43:30;59.85;;;17.83;;
22282;SDS011;11310;51.528;21.204;2023-10-19T05:45:58;69.22;;;18.75;;
22282;SDS011;11310;51.528;21.204;2023-10-19T05:48:31;122.45;;;30.33;;
22282;SDS011;11310;51.528;21.204;2023-10-19T05:51:02;79.18;;;21.35;;
22282;SDS011;11310;51.528;21.204;2023-10-19T05:53:32;62.83;;;19.80;;
22282;SDS011;11310;51.528;21.204;2023-10-19T05:56:00;55.47;;;17.90;;
22282;SDS011;11310;51.528;21.204;2023-10-19T05:58:29;69.82;;;19.55;;
22282;SDS011;11310;51.528;21.204;2023-10-19T06:00:58;58.53;;;17.95;;
22282;SDS011;11310;51.528;21.204;2023-10-19T06:03:31;83.00;;;22.40;;
22282;SDS011;11310;51.528;21.204;2023-10-19T06:06:00;53.17;;;17.75;;
22282;SDS011;11310;51.528;21.204;2023-10-19T06:08:31;74.63;;;23.48;;
22282;SDS011;11310;51.528;21.204;2023-10-19T06:11:00;81.88;;;23.40;;
22282;SDS011;11310;51.528;21.204;2023-10-19T06:13:35;88.60;;;23.98;;
22282;SDS011;11310;51.528;21.204;2023-10-19T06:16:07;73.40;;;21.90;;
22282;SDS011;11310;51.528;21.204;2023-10-19T06:18:42;66.18;;;19.75;;
22282;SDS011;11310;51.528;21.204;2023-10-19T06:21:11;66.20;;;20.13;;
22282;SDS011;11310;51.528;21.204;2023-10-19T06:23:40;60.60;;;19.88;;
22282;SDS011;11310;51.528;21.204;2023-10-19T06:26:09;53.30;;;18.17;;
22282;SDS011;11310;51.528;21.204;2023-10-19T06:28:39;61.67;;;20.95;;
22282;SDS011;11310;51.528;21.204;2023-10-19T06:31:08;56.15;;;19.98;;
22282;SDS011;11310;51.528;21.204;2023-10-19T06:33:37;66.45;;;23.02;;
22282;SDS011;11310;51.528;21.204;2023-10-19T06:36:10;56.83;;;21.80;;
22282;SDS011;11310;51.528;21.204;2023-10-19T06:38:39;72.43;;;26.63;;
22282;SDS011;11310;51.528;21.204;2023-10-19T06:41:12;65.32;;;22.98;;
22282;SDS011;11310;51.528;21.204;2023-10-19T06:43:40;54.25;;;21.77;;
22282;SDS011;11310;51.528;21.204;2023-10-19T06:46:10;53.28;;;20.65;;
22282;SDS011;11310;51.528;21.204;2023-10-19T06:48:39;42.10;;;17.80;;
22282;SDS011;11310;51.528;21.204;2023-10-19T06:51:11;47.60;;;18.30;;
22282;SDS011;11310;51.528;21.204;2023-10-19T06:53:39;65.72;;;22.25;;
22282;SDS011;11310;51.528;21.204;2023-10-19T06:56:08;57.13;;;23.80;;
22282;SDS011;11310;51.528;21.204;2023-10-19T06:58:39;52.45;;;20.02;;
22282;SDS011;11310;51.528;21.204;2023-10-19T07:01:08;41.78;;;16.10;;
22282;SDS011;11310;51.528;21.204;2023-10-19T07:03:37;62.47;;;23.13;;
22282;SDS011;11310;51.528;21.204;2023-10-19T07:06:06;50.03;;;18.48;;
22282;SDS011;11310;51.528;21.204;2023-10-19T07:08:42;48.28;;;18.05;;
22282;SDS011;11310;51.528;21.204;2023-10-19T07:11:10;44.30;;;16.65;;
22282;SDS011;11310;51.528;21.204;2023-10-19T07:13:39;58.88;;;21.67;;
22282;SDS011;11310;51.528;21.204;2023-10-19T07:16:10;44.28;;;17.65;;
22282;SDS011;11310;51.528;21.204;2023-10-19T07:18:40;43.20;;;18.83;;
22282;SDS011;11310;51.528;21.204;2023-10-19T07:21:09;43.22;;;17.88;;
22282;SDS011;11310;51.528;21.204;2023-10-19T07:23:39;40.77;;;17.57;;
22282;SDS011;11310;51.528;21.204;2023-10-19T07:26:10;38.70;;;17.48;;
22282;SDS011;11310;51.528;21.204;2023-10-19T07:28:42;46.67;;;19.50;;
22282;SDS011;11310;51.528;21.204;2023-10-19T07:31:11;37.00;;;16.57;;
22282;SDS011;11310;51.528;21.204;2023-10-19T07:36:14;32.85;;;16.38;;
22282;SDS011;11310;51.528;21.204;2023-10-19T07:38:42;33.63;;;17.20;;
22282;SDS011;11310;51.528;21.204;2023-10-19T07:41:14;33.90;;;17.63;;
22282;SDS011;11310;51.528;21.204;2023-10-19T07:43:43;34.95;;;18.98;;
22282;SDS011;11310;51.528;21.204;2023-10-19T07:46:11;28.17;;;15.65;;
22282;SDS011;11310;51.528;21.204;2023-10-19T07:48:40;32.30;;;20.27;;
22282;SDS011;11310;51.528;21.204;2023-10-19T07:51:09;25.27;;;14.63;;
22282;SDS011;11310;51.528;21.204;2023-10-19T07:53:38;28.65;;;17.75;;
22282;SDS011;11310;51.528;21.204;2023-10-19T07:56:07;24.55;;;12.30;;
22282;SDS011;11310;51.528;21.204;2023-10-19T07:58:37;21.67;;;13.80;;
22282;SDS011;11310;51.528;21.204;2023-10-19T08:01:08;21.42;;;12.65;;
22282;SDS011;11310;51.528;21.204;2023-10-19T08:03:38;22.65;;;14.35;;
22282;SDS011;11310;51.528;21.204;2023-10-19T08:06:09;22.35;;;11.25;;
22282;SDS011;11310;51.528;21.204;2023-10-19T08:08:38;19.40;;;12.15;;
22282;SDS011;11310;51.528;21.204;2023-10-19T08:11:08;20.10;;;10.85;;
22282;SDS011;11310;51.528;21.204;2023-10-19T08:13:38;19.58;;;11.80;;
22282;SDS011;11310;51.528;21.204;2023-10-19T08:16:08;19.83;;;10.18;;
22282;SDS011;11310;51.528;21.204;2023-10-19T08:18:39;19.08;;;12.55;;
22282;SDS011;11310;51.528;21.204;2023-10-19T08:21:08;16.67;;;9.85;;
22282;SDS011;11310;51.528;21.204;2023-10-19T08:23:37;23.13;;;14.57;;
22282;SDS011;11310;51.528;21.204;2023-10-19T08:26:06;25.20;;;14.18;;
22282;SDS011;11310;51.528;21.204;2023-10-19T08:28:39;28.88;;;14.90;;
22282;SDS011;11310;51.528;21.204;2023-10-19T08:31:08;34.05;;;16.27;;
22282;SDS011;11310;51.528;21.204;2023-10-19T08:33:37;25.77;;;14.70;;
22282;SDS011;11310;51.528;21.204;2023-10-19T08:36:15;36.33;;;18.52;;
22282;SDS011;11310;51.528;21.204;2023-10-19T08:38:46;37.35;;;17.45;;
22282;SDS011;11310;51.528;21.204;2023-10-19T08:41:15;42.35;;;17.23;;
22282;SDS011;11310;51.528;21.204;2023-10-19T08:43:45;37.75;;;16.73;;
22282;SDS011;11310;51.528;21.204;2023-10-19T08:46:16;37.08;;;15.48;;
22282;SDS011;11310;51.528;21.204;2023-10-19T08:48:45;50.05;;;17.35;;
22282;SDS011;11310;51.528;21.204;2023-10-19T08:51:14;34.47;;;13.40;;
22282;SDS011;11310;51.528;21.204;2023-10-19T08:53:44;33.08;;;13.45;;
22282;SDS011;11310;51.528;21.204;2023-10-19T08:56:13;38.72;;;15.40;;
22282;SDS011;11310;51.528;21.204;2023-10-19T08:58:45;52.78;;;18.70;;
22282;SDS011;11310;51.528;21.204;2023-10-19T09:01:14;34.50;;;13.38;;
22282;SDS011;11310;51.528;21.204;2023-10-19T09:03:42;53.42;;;19.23;;
22282;SDS011;11310;51.528;21.204;2023-10-19T09:06:12;31.35;;;12.75;;
22282;SDS011;11310;51.528;21.204;2023-10-19T09:08:42;48.08;;;17.92;;
22282;SDS011;11310;51.528;21.204;2023-10-19T09:11:13;30.13;;;13.95;;
22282;SDS011;11310;51.528;21.204;2023-10-19T09:13:45;30.60;;;15.98;;
22282;SDS011;11310;51.528;21.204;2023-10-19T09:16:15;19.95;;;11.52;;
22282;SDS011;11310;51.528;21.204;2023-10-19T09:18:45;18.58;;;12.68;;
22282;SDS011;11310;51.528;21.204;2023-10-19T09:21:15;17.35;;;9.60;;
22282;SDS011;11310;51.528;21.204;2023-10-19T09:23:51;18.02;;;10.10;;
22282;SDS011;11310;51.528;21.204;2023-10-19T09:26:22;14.57;;;8.23;;
22282;SDS011;11310;51.528;21.204;2023-10-19T09:28:52;19.85;;;12.20;;
22282;SDS011;11310;51.528;21.204;2023-10-19T09:31:22;14.43;;;7.28;;
22282;SDS011;11310;51.528;21.204;2023-10-19T09:33:52;16.27;;;8.85;;
22282;SDS011;11310;51.528;21.204;2023-10-19T09:36:21;18.17;;;8.73;;
22282;SDS011;11310;51.528;21.204;2023-10-19T09:38:53;16.02;;;10.02;;
22282;SDS011;11310;51.528;21.204;2023-10-19T09:41:25;17.30;;;10.65;;
22282;SDS011;11310;51.528;21.204;2023-10-19T09:44:01;13.32;;;7.95;;
22282;SDS011;11310;51.528;21.204;2023-10-19T09:46:37;16.10;;;9.38;;
22282;SDS011;11310;51.528;21.204;2023-10-19T09:49:09;13.40;;;8.85;;
22282;SDS011;11310;51.528;21.204;2023-10-19T09:51:41;16.33;;;9.88;;
22282;SDS011;11310;51.528;21.204;2023-10-19T09:54:34;13.63;;;7.57;;
22282;SDS011;11310;51.528;21.204;2023-10-19T09:57:16;16.88;;;8.82;;
22282;SDS011;11310;51.528;21.204;2023-10-19T09:59:51;14.63;;;8.30;;
22282;SDS011;11310;51.528;21.204;2023-10-19T10:02:26;18.95;;;10.02;;
22282;SDS011;11310;51.528;21.204;2023-10-19T10:04:56;14.48;;;8.25;;
22282;SDS011;11310;51.528;21.204;2023-10-19T10:07:25;11.38;;;6.53;;
22282;SDS011;11310;51.528;21.204;2023-10-19T10:10:08;11.18;;;6.13;;
22282;SDS011;11310;51.528;21.204;2023-10-19T10:12:37;12.32;;;6.55;;
22282;SDS011;11310;51.528;21.204;2023-10-19T10:15:08;12.95;;;5.82;;
22282;SDS011;11310;51.528;21.204;2023-10-19T10:17:38;10.20;;;5.63;;
22282;SDS011;11310;51.528;21.204;2023-10-19T10:23:17;12.15;;;4.75;;
22282;SDS011;11310;51.528;21.204;2023-10-19T10:25:51;11.55;;;4.63;;
22282;SDS011;11310;51.528;21.204;2023-10-19T10:28:24;8.73;;;4.60;;
22282;SDS011;11310;51.528;21.204;2023-10-19T10:31:12;14.68;;;5.30;;
22282;SDS011;11310;51.528;21.204;2023-10-19T10:33:44;10.48;;;5.55;;
22282;SDS011;11310;51.528;21.204;2023-10-19T10:36:16;12.32;;;6.93;;
22282;SDS011;11310;51.528;21.204;2023-10-19T10:38:46;10.85;;;6.75;;
22282;SDS011;11310;51.528;21.204;2023-10-19T10:41:21;11.65;;;6.47;;
22282;SDS011;11310;51.528;21.204;2023-10-19T10:43:53;12.77;;;7.55;;
22282;SDS011;11310;51.528;21.204;2023-10-19T10:46:26;16.38;;;7.50;;
22282;SDS011;11310;51.528;21.204;2023-10-19T10:48:56;17.83;;;8.75;;
22282;SDS011;11310;51.528;21.204;2023-10-19T10:51:25;14.18;;;7.70;;
22282;SDS011;11310;51.528;21.204;2023-10-19T10:53:57;21.55;;;11.18;;
22282;SDS011;11310;51.528;21.204;2023-10-19T10:56:26;17.55;;;9.55;;
22282;SDS011;11310;51.528;21.204;2023-10-19T10:58:56;28.88;;;15.95;;
22282;SDS011;11310;51.528;21.204;2023-10-19T11:01:29;23.05;;;13.35;;
22282;SDS011;11310;51.528;21.204;2023-10-19T11:04:07;15.48;;;8.77;;
22282;SDS011;11310;51.528;21.204;2023-10-19T11:06:47;12.32;;;7.65;;
22282;SDS011;11310;51.528;21.204;2023-10-19T11:09:17;11.23;;;7.15;;
22282;SDS011;11310;51.528;21.204;2023-10-19T11:11:49;13.63;;;7.82;;
22282;SDS011;11310;51.528;21.204;2023-10-19T11:14:20;11.02;;;6.18;;
22282;SDS011;11310;51.528;21.204;2023-10-19T11:16:53;14.85;;;8.15;;
22282;SDS011;11310;51.528;21.204;2023-10-19T11:19:37;12.15;;;6.78;;
22282;SDS011;11310;51.528;21.204;2023-10-19T11:22:09;13.73;;;6.68;;
22282;SDS011;11310;51.528;21.204;2023-10-19T11:24:38;11.60;;;6.70;;
22282;SDS011;11310;51.528;21.204;2023-10-19T11:27:08;14.07;;;7.03;;
22282;SDS011;11310;51.528;21.204;2023-10-19T11:29:38;16.90;;;6.00;;
22282;SDS011;11310;51.528;21.204;2023-10-19T11:32:08;9.52;;;5.47;;
22282;SDS011;11310;51.528;21.204;2023-10-19T11:34:37;10.93;;;4.80;;
22282;SDS011;11310;51.528;21.204;2023-10-19T11:37:08;9.35;;;5.18;;
22282;SDS011;11310;51.528;21.204;2023-10-19T11:39:38;10.68;;;5.57;;
22282;SDS011;11310;51.528;21.204;2023-10-19T11:42:06;13.23;;;5.97;;
22282;SDS011;11310;51.528;21.204;2023-10-19T11:44:36;11.02;;;5.25;;
22282;SDS011;11310;51.528;21.204;2023-10-19T11:47:04;12.23;;;5.60;;
22282;SDS011;11310;51.528;21.204;2023-10-19T11:49:34;11.07;;;5.80;;
22282;SDS011;11310;51.528;21.204;2023-10-19T11:52:05;13.80;;;5.90;;
22282;SDS011;11310;51.528;21.204;2023-10-19T11:54:33;11.95;;;5.55;;
22282;SDS011;11310;51.528;21.204;2023-10-19T11:59:34;9.77;;;4.97;;
22282;SDS011;11310;51.528;21.204;2023-10-19T12:02:02;8.52;;;4.82;;
22282;SDS011;11310;51.528;21.204;2023-10-19T12:04:35;12.18;;;4.72;;
22282;SDS011;11310;51.528;21.204;2023-10-19T12:07:03;10.60;;;4.82;;
22282;SDS011;11310;51.528;21.204;2023-10-19T12:09:32;8.40;;;4.53;;
22282;SDS011;11310;51.528;21.204;2023-10-19T12:12:02;12.10;;;5.70;;
22282;SDS011;11310;51.528;21.204;2023-10-19T12:14:32;10.18;;;5.07;;
22282;SDS011;11310;51.528;21.204;2023-10-19T12:17:01;10.02;;;5.15;;
22282;SDS011;11310;51.528;21.204;2023-10-19T12:19:30;19.30;;;6.45;;
22282;SDS011;11310;51.528;21.204;2023-10-19T12:22:04;141.68;;;30.88;;
22282;SDS011;11310;51.528;21.204;2023-10-19T12:24:35;102.03;;;27.17;;
22282;SDS011;11310;51.528;21.204;2023-10-19T12:27:03;31.52;;;10.65;;
22282;SDS011;11310;51.528;21.204;2023-10-19T12:29:33;18.42;;;7.18;;
22282;SDS011;11310;51.528;21.204;2023-10-19T12:32:01;13.05;;;5.93;;
22282;SDS011;11310;51.528;21.204;2023-10-19T12:34:31;13.10;;;5.72;;
22282;SDS011;11310;51.528;21.204;2023-10-19T12:37:00;11.95;;;5.43;;
22282;SDS011;11310;51.528;21.204;2023-10-19T12:39:32;12.63;;;5.40;;
22282;SDS011;11310;51.528;21.204;2023-10-19T12:42:07;35.67;;;12.55;;
22282;SDS011;11310;51.528;21.204;2023-10-19T12:44:36;24.13;;;8.98;;
22282;SDS011;11310;51.528;21.204;2023-10-19T12:47:10;13.65;;;5.85;;
22282;SDS011;11310;51.528;21.204;2023-10-19T12:49:44;13.30;;;5.55;;
22282;SDS011;11310;51.528;21.204;2023-10-19T12:52:13;12.52;;;5.82;;
22282;SDS011;11310;51.528;21.204;2023-10-19T12:54:43;11.68;;;5.05;;
22282;SDS011;11310;51.528;21.204;2023-10-19T12:57:14;9.82;;;4.53;;
22282;SDS011;11310;51.528;21.204;2023-10-19T12:59:43;12.07;;;4.63;;
22282;SDS011;11310;51.528;21.204;2023-10-19T13:02:12;13.10;;;5.95;;
22282;SDS011;11310;51.528;21.204;2023-10-19T13:04:42;12.07;;;5.40;;
22282;SDS011;11310;51.528;21.204;2023-10-19T13:07:13;10.65;;;4.88;;
22282;SDS011;11310;51.528;21.204;2023-10-19T13:09:43;9.95;;;5.13;;
22282;SDS011;11310;51.528;21.204;2023-10-19T13:12:12;10.60;;;5.13;;
22282;SDS011;11310;51.528;21.204;2023-10-19T13:14:41;11.48;;;5.10;;
22282;SDS011;11310;51.528;21.204;2023-10-19T13:17:11;13.27;;;5.78;;
22282;SDS011;11310;51.528;21.204;2023-10-19T13:19:40;12.88;;;5.38;;
22282;SDS011;11310;51.528;21.204;2023-10-19T13:22:08;12.00;;;5.63;;
22282;SDS011;11310;51.528;21.204;2023-10-19T13:24:38;12.98;;;6.47;;
22282;SDS011;11310;51.528;21.204;2023-10-19T13:27:10;12.60;;;6.65;;
22282;SDS011;11310;51.528;21.204;2023-10-19T13:29:41;14.43;;;6.97;;
22282;SDS011;11310;51.528;21.204;2023-10-19T13:32:10;12.32;;;6.85;;
22282;SDS011;11310;51.528;21.204;2023-10-19T13:34:41;17.77;;;6.63;;
22282;SDS011;11310;51.528;21.204;2023-10-19T13:37:10;13.57;;;6.18;;
22282;SDS011;11310;51.528;21.204;2023-10-19T13:39:39;12.32;;;5.40;;
22282;SDS011;11310;51.528;21.204;2023-10-19T13:42:09;13.13;;;6.00;;
22282;SDS011;11310;51.528;21.204;2023-10-19T13:44:38;10.48;;;6.07;;
22282;SDS011;11310;51.528;21.204;2023-10-19T13:47:07;12.70;;;6.07;;
22282;SDS011;11310;51.528;21.204;2023-10-19T13:49:38;14.43;;;6.95;;
22282;SDS011;11310;51.528;21.204;2023-10-19T13:52:09;11.18;;;6.55;;
22282;SDS011;11310;51.528;21.204;2023-10-19T13:54:42;12.13;;;6.90;;
22282;SDS011;11310;51.528;21.204;2023-10-19T13:57:12;11.35;;;6.45;;
22282;SDS011;11310;51.528;21.204;2023-10-19T13:59:41;11.18;;;6.78;;
22282;SDS011;11310;51.528;21.204;2023-10-19T14:02:12;13.20;;;6.70;;
22282;SDS011;11310;51.528;21.204;2023-10-19T14:04:41;12.05;;;5.93;;
22282;SDS011;11310;51.528;21.204;2023-10-19T14:07:10;12.55;;;6.32;;
22282;SDS011;11310;51.528;21.204;2023-10-19T14:09:39;13.27;;;6.75;;
22282;SDS011;11310;51.528;21.204;2023-10-19T14:12:09;12.30;;;6.95;;
22282;SDS011;11310;51.528;21.204;2023-10-19T14:14:39;13.30;;;6.88;;
22282;SDS011;11310;51.528;21.204;2023-10-19T14:17:09;14.77;;;7.57;;
22282;SDS011;11310;51.528;21.204;2023-10-19T14:19:39;19.55;;;9.15;;
22282;SDS011;11310;51.528;21.204;2023-10-19T14:22:13;18.65;;;8.90;;
22282;SDS011;11310;51.528;21.204;2023-10-19T14:24:43;18.25;;;7.75;;
22282;SDS011;11310;51.528;21.204;2023-10-19T14:27:12;16.08;;;7.45;;
22282;SDS011;11310;51.528;21.204;2023-10-19T14:29:43;17.80;;;8.07;;
22282;SDS011;11310;51.528;21.204;2023-10-19T14:32:15;17.30;;;8.43;;
22282;SDS011;11310;51.528;21.204;2023-10-19T14:34:45;17.77;;;8.95;;
22282;SDS011;11310;51.528;21.204;2023-10-19T14:37:17;18.20;;;8.38;;
22282;SDS011;11310;51.528;21.204;2023-10-19T14:39:46;16.05;;;8.18;;
22282;SDS011;11310;51.528;21.204;2023-10-19T14:42:15;17.27;;;8.48;;
22282;SDS011;11310;51.528;21.204;2023-10-19T14:44:47;15.85;;;8.25;;
22282;SDS011;11310;51.528;21.204;2023-10-19T14:47:16;19.88;;;8.00;;